TAF LFCK
METAR LFCK
LFCK 080330Z AUTO 30005KT 270V330 9999 -RA BKN034/// OVC041/// ///CB 06/05 Q1006=
LFCK 080300Z AUTO 30007KT 9999 BKN036/// OVC042/// ///TCU 07/06 Q1006=
LFCK 080230Z AUTO 30007KT 9999 -RA FEW008/// OVC042/// ///TCU 07/06 Q1006=
LFCK 080200Z AUTO 29010KT 9999 -RA BKN008/// OVC013/// ///CB 08/07 Q1006=
LFCK 080130Z AUTO 29006KT 9999 RA BKN007/// BKN012/// OVC031/// ///CB 08/07 Q1006=
WC LFCK
WS LFCK
WV LFCK